sensor_id;sensor_type;location;lat;lon;timestamp;P1;durP1;ratioP1;P2;durP2;ratioP2
55497;SDS011;41357;52.806;18.268;2023-06-24T00:00:09;24.83;;;7.43;;
55497;SDS011;41357;52.806;18.268;2023-06-24T00:02:37;13.18;;;4.30;;
55497;SDS011;41357;52.806;18.268;2023-06-24T00:05:04;6.68;;;4.30;;
55497;SDS011;41357;52.806;18.268;2023-06-24T00:07:33;9.77;;;4.80;;
55497;SDS011;41357;52.806;18.268;2023-06-24T00:10:09;13.00;;;4.25;;
55497;SDS011;41357;52.806;18.268;2023-06-24T00:12:35;6.15;;;4.00;;
55497;SDS011;41357;52.806;18.268;2023-06-24T00:15:05;9.00;;;4.32;;
55497;SDS011;41357;52.806;18.268;2023-06-24T00:17:31;6.13;;;3.92;;
55497;SDS011;41357;52.806;18.268;2023-06-24T00:19:57;12.07;;;3.78;;
55497;SDS011;41357;52.806;18.268;2023-06-24T00:22:24;6.40;;;3.58;;
55497;SDS011;41357;52.806;18.268;2023-06-24T00:24:50;16.75;;;4.70;;
55497;SDS011;41357;52.806;18.268;2023-06-24T00:27:16;8.43;;;3.88;;
55497;SDS011;41357;52.806;18.268;2023-06-24T00:29:42;9.77;;;3.97;;
55497;SDS011;41357;52.806;18.268;2023-06-24T00:32:09;12.95;;;4.22;;
55497;SDS011;41357;52.806;18.268;2023-06-24T00:34:35;11.65;;;4.60;;
55497;SDS011;41357;52.806;18.268;2023-06-24T00:37:01;5.82;;;3.97;;
55497;SDS011;41357;52.806;18.268;2023-06-24T00:39:27;7.35;;;3.65;;
55497;SDS011;41357;52.806;18.268;2023-06-24T00:41:54;9.15;;;4.28;;
55497;SDS011;41357;52.806;18.268;2023-06-24T00:44:20;6.22;;;4.32;;
55497;SDS011;41357;52.806;18.268;2023-06-24T00:46:46;14.10;;;3.97;;
55497;SDS011;41357;52.806;18.268;2023-06-24T00:49:12;8.48;;;3.97;;
55497;SDS011;41357;52.806;18.268;2023-06-24T00:51:38;5.32;;;3.80;;
55497;SDS011;41357;52.806;18.268;2023-06-24T00:54:06;8.38;;;3.83;;
55497;SDS011;41357;52.806;18.268;2023-06-24T00:56:34;7.65;;;3.95;;
55497;SDS011;41357;52.806;18.268;2023-06-24T00:59:03;7.17;;;3.60;;
55497;SDS011;41357;52.806;18.268;2023-06-24T01:01:30;6.45;;;3.88;;
55497;SDS011;41357;52.806;18.268;2023-06-24T01:03:58;10.27;;;3.95;;
55497;SDS011;41357;52.806;18.268;2023-06-24T01:06:25;6.32;;;4.07;;
55497;SDS011;41357;52.806;18.268;2023-06-24T01:08:57;8.05;;;4.28;;
55497;SDS011;41357;52.806;18.268;2023-06-24T01:13:51;8.63;;;4.90;;
55497;SDS011;41357;52.806;18.268;2023-06-24T01:16:23;9.10;;;4.32;;
55497;SDS011;41357;52.806;18.268;2023-06-24T01:18:52;10.75;;;5.30;;
55497;SDS011;41357;52.806;18.268;2023-06-24T01:29:16;8.95;;;4.45;;
55497;SDS011;41357;52.806;18.268;2023-06-24T01:31:51;7.75;;;4.45;;
55497;SDS011;41357;52.806;18.268;2023-06-24T01:34:27;11.18;;;4.43;;
55497;SDS011;41357;52.806;18.268;2023-06-24T01:37:00;9.43;;;4.53;;
55497;SDS011;41357;52.806;18.268;2023-06-24T01:39:28;8.82;;;4.65;;
55497;SDS011;41357;52.806;18.268;2023-06-24T01:42:03;9.60;;;4.90;;
55497;SDS011;41357;52.806;18.268;2023-06-24T01:44:32;13.77;;;4.88;;
55497;SDS011;41357;52.806;18.268;2023-06-24T01:46:59;7.55;;;4.78;;
55497;SDS011;41357;52.806;18.268;2023-06-24T01:49:27;12.02;;;5.03;;
55497;SDS011;41357;52.806;18.268;2023-06-24T01:51:54;8.35;;;4.43;;
55497;SDS011;41357;52.806;18.268;2023-06-24T01:54:21;8.77;;;5.38;;
55497;SDS011;41357;52.806;18.268;2023-06-24T01:56:48;7.45;;;4.47;;
55497;SDS011;41357;52.806;18.268;2023-06-24T01:59:16;7.82;;;4.38;;
55497;SDS011;41357;52.806;18.268;2023-06-24T02:01:43;11.27;;;5.50;;
55497;SDS011;41357;52.806;18.268;2023-06-24T02:04:10;8.18;;;5.03;;
55497;SDS011;41357;52.806;18.268;2023-06-24T02:06:38;6.97;;;4.78;;
55497;SDS011;41357;52.806;18.268;2023-06-24T02:09:06;10.65;;;4.60;;
55497;SDS011;41357;52.806;18.268;2023-06-24T02:11:33;7.45;;;4.78;;
55497;SDS011;41357;52.806;18.268;2023-06-24T02:13:59;7.28;;;4.15;;
55497;SDS011;41357;52.806;18.268;2023-06-24T02:16:26;7.45;;;4.22;;
55497;SDS011;41357;52.806;18.268;2023-06-24T02:18:53;9.82;;;4.00;;
55497;SDS011;41357;52.806;18.268;2023-06-24T02:21:21;9.65;;;5.35;;
55497;SDS011;41357;52.806;18.268;2023-06-24T02:23:47;7.47;;;4.63;;
55497;SDS011;41357;52.806;18.268;2023-06-24T02:26:13;8.95;;;4.60;;
55497;SDS011;41357;52.806;18.268;2023-06-24T02:28:41;14.25;;;5.60;;
55497;SDS011;41357;52.806;18.268;2023-06-24T02:31:07;6.68;;;4.68;;
55497;SDS011;41357;52.806;18.268;2023-06-24T02:33:34;7.00;;;4.78;;
55497;SDS011;41357;52.806;18.268;2023-06-24T02:36:01;8.32;;;4.45;;
55497;SDS011;41357;52.806;18.268;2023-06-24T02:38:27;6.78;;;3.92;;
55497;SDS011;41357;52.806;18.268;2023-06-24T02:40:53;7.68;;;4.22;;
55497;SDS011;41357;52.806;18.268;2023-06-24T02:43:19;12.85;;;4.28;;
55497;SDS011;41357;52.806;18.268;2023-06-24T02:45:46;8.98;;;4.35;;
55497;SDS011;41357;52.806;18.268;2023-06-24T02:48:13;6.70;;;4.70;;
55497;SDS011;41357;52.806;18.268;2023-06-24T02:50:40;9.10;;;4.63;;
55497;SDS011;41357;52.806;18.268;2023-06-24T02:53:09;7.93;;;5.00;;
55497;SDS011;41357;52.806;18.268;2023-06-24T02:55:36;11.00;;;4.40;;
55497;SDS011;41357;52.806;18.268;2023-06-24T02:58:03;4.90;;;3.78;;
55497;SDS011;41357;52.806;18.268;2023-06-24T03:00:33;11.35;;;4.45;;
55497;SDS011;41357;52.806;18.268;2023-06-24T03:03:00;8.13;;;3.85;;
55497;SDS011;41357;52.806;18.268;2023-06-24T03:05:26;7.53;;;4.78;;
55497;SDS011;41357;52.806;18.268;2023-06-24T03:07:53;7.03;;;4.68;;
55497;SDS011;41357;52.806;18.268;2023-06-24T03:10:19;7.20;;;4.80;;
55497;SDS011;41357;52.806;18.268;2023-06-24T03:12:47;8.68;;;4.88;;
55497;SDS011;41357;52.806;18.268;2023-06-24T03:15:13;6.00;;;4.13;;
55497;SDS011;41357;52.806;18.268;2023-06-24T03:17:39;9.85;;;4.47;;
55497;SDS011;41357;52.806;18.268;2023-06-24T03:20:06;7.82;;;5.25;;
55497;SDS011;41357;52.806;18.268;2023-06-24T03:22:33;10.65;;;4.90;;
55497;SDS011;41357;52.806;18.268;2023-06-24T03:24:59;8.13;;;4.32;;
55497;SDS011;41357;52.806;18.268;2023-06-24T03:27:25;8.70;;;4.72;;
55497;SDS011;41357;52.806;18.268;2023-06-24T03:29:51;6.40;;;4.47;;
55497;SDS011;41357;52.806;18.268;2023-06-24T03:32:17;6.82;;;3.88;;
55497;SDS011;41357;52.806;18.268;2023-06-24T03:34:43;6.60;;;4.35;;
55497;SDS011;41357;52.806;18.268;2023-06-24T03:37:09;9.32;;;4.28;;
55497;SDS011;41357;52.806;18.268;2023-06-24T03:39:36;5.47;;;4.03;;
55497;SDS011;41357;52.806;18.268;2023-06-24T03:42:02;6.50;;;3.95;;
55497;SDS011;41357;52.806;18.268;2023-06-24T03:44:28;11.23;;;4.18;;
55497;SDS011;41357;52.806;18.268;2023-06-24T03:46:54;8.05;;;4.13;;
55497;SDS011;41357;52.806;18.268;2023-06-24T03:49:20;9.38;;;4.43;;
55497;SDS011;41357;52.806;18.268;2023-06-24T03:51:47;7.68;;;3.95;;
55497;SDS011;41357;52.806;18.268;2023-06-24T03:54:13;7.60;;;4.88;;
55497;SDS011;41357;52.806;18.268;2023-06-24T03:56:39;8.60;;;4.07;;
55497;SDS011;41357;52.806;18.268;2023-06-24T03:59:05;6.68;;;3.90;;
55497;SDS011;41357;52.806;18.268;2023-06-24T04:01:32;8.15;;;4.82;;
55497;SDS011;41357;52.806;18.268;2023-06-24T04:03:59;10.48;;;5.25;;
55497;SDS011;41357;52.806;18.268;2023-06-24T04:06:25;17.85;;;7.25;;
55497;SDS011;41357;52.806;18.268;2023-06-24T04:08:51;13.00;;;5.97;;
55497;SDS011;41357;52.806;18.268;2023-06-24T04:11:17;11.15;;;6.70;;
55497;SDS011;41357;52.806;18.268;2023-06-24T04:13:44;8.10;;;5.72;;
55497;SDS011;41357;52.806;18.268;2023-06-24T04:16:11;5.88;;;4.32;;
55497;SDS011;41357;52.806;18.268;2023-06-24T04:18:37;6.10;;;4.35;;
55497;SDS011;41357;52.806;18.268;2023-06-24T04:21:05;7.35;;;4.60;;
55497;SDS011;41357;52.806;18.268;2023-06-24T04:23:34;11.10;;;6.97;;
55497;SDS011;41357;52.806;18.268;2023-06-24T04:26:00;10.80;;;7.43;;
55497;SDS011;41357;52.806;18.268;2023-06-24T04:28:26;11.52;;;6.32;;
55497;SDS011;41357;52.806;18.268;2023-06-24T04:30:52;8.40;;;4.60;;
55497;SDS011;41357;52.806;18.268;2023-06-24T04:33:18;8.57;;;4.25;;
55497;SDS011;41357;52.806;18.268;2023-06-24T04:35:44;7.53;;;4.30;;
55497;SDS011;41357;52.806;18.268;2023-06-24T04:38:10;8.65;;;4.00;;
55497;SDS011;41357;52.806;18.268;2023-06-24T04:40:36;6.07;;;3.72;;
55497;SDS011;41357;52.806;18.268;2023-06-24T04:43:03;6.57;;;3.83;;
55497;SDS011;41357;52.806;18.268;2023-06-24T04:45:29;9.93;;;4.13;;
55497;SDS011;41357;52.806;18.268;2023-06-24T04:47:55;7.10;;;3.92;;
55497;SDS011;41357;52.806;18.268;2023-06-24T04:50:21;7.15;;;4.20;;
55497;SDS011;41357;52.806;18.268;2023-06-24T04:52:51;9.48;;;4.95;;
55497;SDS011;41357;52.806;18.268;2023-06-24T04:55:19;8.13;;;4.25;;
55497;SDS011;41357;52.806;18.268;2023-06-24T04:57:45;5.47;;;3.85;;
55497;SDS011;41357;52.806;18.268;2023-06-24T05:00:11;9.77;;;3.78;;
55497;SDS011;41357;52.806;18.268;2023-06-24T05:02:37;7.68;;;4.18;;
55497;SDS011;41357;52.806;18.268;2023-06-24T05:05:03;7.88;;;4.00;;
55497;SDS011;41357;52.806;18.268;2023-06-24T05:07:30;7.85;;;3.95;;
55497;SDS011;41357;52.806;18.268;2023-06-24T05:09:56;6.10;;;4.00;;
55497;SDS011;41357;52.806;18.268;2023-06-24T05:12:22;5.47;;;4.10;;
55497;SDS011;41357;52.806;18.268;2023-06-24T05:14:49;7.30;;;4.40;;
55497;SDS011;41357;52.806;18.268;2023-06-24T05:17:15;7.28;;;4.32;;
55497;SDS011;41357;52.806;18.268;2023-06-24T05:19:41;6.55;;;3.85;;
55497;SDS011;41357;52.806;18.268;2023-06-24T05:22:08;6.03;;;3.80;;
55497;SDS011;41357;52.806;18.268;2023-06-24T05:24:34;8.25;;;3.28;;
55497;SDS011;41357;52.806;18.268;2023-06-24T05:27:05;7.07;;;3.60;;
55497;SDS011;41357;52.806;18.268;2023-06-24T05:29:31;6.20;;;3.63;;
55497;SDS011;41357;52.806;18.268;2023-06-24T05:31:58;5.70;;;3.42;;
55497;SDS011;41357;52.806;18.268;2023-06-24T05:34:24;5.28;;;3.92;;
55497;SDS011;41357;52.806;18.268;2023-06-24T05:36:51;8.00;;;4.00;;
55497;SDS011;41357;52.806;18.268;2023-06-24T05:39:17;5.90;;;3.85;;
55497;SDS011;41357;52.806;18.268;2023-06-24T05:41:43;7.55;;;3.90;;
55497;SDS011;41357;52.806;18.268;2023-06-24T05:44:09;6.93;;;3.78;;
55497;SDS011;41357;52.806;18.268;2023-06-24T05:46:36;7.00;;;3.80;;
55497;SDS011;41357;52.806;18.268;2023-06-24T05:49:03;6.28;;;3.92;;
55497;SDS011;41357;52.806;18.268;2023-06-24T05:51:29;6.05;;;3.58;;
55497;SDS011;41357;52.806;18.268;2023-06-24T05:53:55;6.47;;;4.13;;
55497;SDS011;41357;52.806;18.268;2023-06-24T05:56:22;7.07;;;4.38;;
55497;SDS011;41357;52.806;18.268;2023-06-24T05:58:48;5.82;;;3.50;;
55497;SDS011;41357;52.806;18.268;2023-06-24T06:01:15;10.23;;;3.85;;
55497;SDS011;41357;52.806;18.268;2023-06-24T06:03:41;7.20;;;4.22;;
55497;SDS011;41357;52.806;18.268;2023-06-24T06:06:07;9.30;;;4.10;;
55497;SDS011;41357;52.806;18.268;2023-06-24T06:08:33;10.65;;;5.25;;
55497;SDS011;41357;52.806;18.268;2023-06-24T06:11:00;5.32;;;3.78;;
55497;SDS011;41357;52.806;18.268;2023-06-24T06:13:29;6.55;;;4.05;;
55497;SDS011;41357;52.806;18.268;2023-06-24T06:15:56;5.78;;;3.90;;
55497;SDS011;41357;52.806;18.268;2023-06-24T06:18:22;7.88;;;3.30;;
55497;SDS011;41357;52.806;18.268;2023-06-24T06:20:49;4.70;;;3.65;;
55497;SDS011;41357;52.806;18.268;2023-06-24T06:23:15;10.60;;;3.85;;
55497;SDS011;41357;52.806;18.268;2023-06-24T06:25:42;6.50;;;4.00;;
55497;SDS011;41357;52.806;18.268;2023-06-24T06:28:08;8.63;;;3.95;;
55497;SDS011;41357;52.806;18.268;2023-06-24T06:30:34;7.68;;;3.88;;
55497;SDS011;41357;52.806;18.268;2023-06-24T06:33:00;6.13;;;4.00;;
55497;SDS011;41357;52.806;18.268;2023-06-24T06:35:27;6.63;;;3.88;;
55497;SDS011;41357;52.806;18.268;2023-06-24T06:37:53;9.80;;;4.15;;
55497;SDS011;41357;52.806;18.268;2023-06-24T06:40:20;9.93;;;3.92;;
55497;SDS011;41357;52.806;18.268;2023-06-24T06:42:46;6.45;;;3.78;;
55497;SDS011;41357;52.806;18.268;2023-06-24T06:45:12;5.97;;;3.75;;
55497;SDS011;41357;52.806;18.268;2023-06-24T06:47:38;6.03;;;3.75;;
55497;SDS011;41357;52.806;18.268;2023-06-24T06:50:05;7.22;;;3.58;;
55497;SDS011;41357;52.806;18.268;2023-06-24T06:52:31;8.23;;;4.40;;
55497;SDS011;41357;52.806;18.268;2023-06-24T06:54:57;7.63;;;4.25;;
55497;SDS011;41357;52.806;18.268;2023-06-24T06:57:23;10.82;;;4.53;;
55497;SDS011;41357;52.806;18.268;2023-06-24T06:59:50;6.47;;;3.80;;
55497;SDS011;41357;52.806;18.268;2023-06-24T07:02:17;6.88;;;4.03;;
55497;SDS011;41357;52.806;18.268;2023-06-24T07:04:43;6.78;;;3.85;;
55497;SDS011;41357;52.806;18.268;2023-06-24T07:07:09;7.97;;;3.80;;
55497;SDS011;41357;52.806;18.268;2023-06-24T07:09:37;7.35;;;4.07;;
55497;SDS011;41357;52.806;18.268;2023-06-24T07:12:03;4.80;;;3.58;;
55497;SDS011;41357;52.806;18.268;2023-06-24T07:14:29;6.18;;;3.65;;
55497;SDS011;41357;52.806;18.268;2023-06-24T07:16:55;5.15;;;3.50;;
55497;SDS011;41357;52.806;18.268;2023-06-24T07:19:21;5.22;;;3.50;;
55497;SDS011;41357;52.806;18.268;2023-06-24T07:21:48;7.07;;;3.90;;
55497;SDS011;41357;52.806;18.268;2023-06-24T07:24:14;6.90;;;3.38;;
55497;SDS011;41357;52.806;18.268;2023-06-24T07:26:40;5.32;;;3.33;;
55497;SDS011;41357;52.806;18.268;2023-06-24T07:29:06;4.70;;;3.20;;
55497;SDS011;41357;52.806;18.268;2023-06-24T07:31:33;5.43;;;3.90;;
55497;SDS011;41357;52.806;18.268;2023-06-24T07:33:59;5.57;;;3.42;;
55497;SDS011;41357;52.806;18.268;2023-06-24T07:36:25;4.93;;;3.13;;
55497;SDS011;41357;52.806;18.268;2023-06-24T07:38:51;7.03;;;3.38;;
55497;SDS011;41357;52.806;18.268;2023-06-24T07:41:18;5.57;;;3.80;;
55497;SDS011;41357;52.806;18.268;2023-06-24T07:46:37;7.75;;;3.83;;
55497;SDS011;41357;52.806;18.268;2023-06-24T07:49:03;5.30;;;3.53;;
55497;SDS011;41357;52.806;18.268;2023-06-24T07:51:29;6.07;;;3.88;;
55497;SDS011;41357;52.806;18.268;2023-06-24T07:53:55;4.38;;;3.17;;
55497;SDS011;41357;52.806;18.268;2023-06-24T07:56:22;5.65;;;3.88;;
55497;SDS011;41357;52.806;18.268;2023-06-24T07:58:48;6.90;;;4.47;;
55497;SDS011;41357;52.806;18.268;2023-06-24T08:01:14;5.40;;;3.33;;
55497;SDS011;41357;52.806;18.268;2023-06-24T08:03:40;7.22;;;3.72;;
55497;SDS011;41357;52.806;18.268;2023-06-24T08:06:06;6.72;;;4.40;;
55497;SDS011;41357;52.806;18.268;2023-06-24T08:08:32;13.85;;;4.22;;
55497;SDS011;41357;52.806;18.268;2023-06-24T08:10:58;5.38;;;4.00;;
55497;SDS011;41357;52.806;18.268;2023-06-24T08:13:25;8.00;;;4.03;;
55497;SDS011;41357;52.806;18.268;2023-06-24T08:15:51;6.95;;;3.97;;
55497;SDS011;41357;52.806;18.268;2023-06-24T08:18:17;7.07;;;3.80;;
55497;SDS011;41357;52.806;18.268;2023-06-24T08:20:43;5.28;;;3.28;;
55497;SDS011;41357;52.806;18.268;2023-06-24T08:23:09;5.55;;;3.20;;
55497;SDS011;41357;52.806;18.268;2023-06-24T08:25:35;6.43;;;3.50;;
55497;SDS011;41357;52.806;18.268;2023-06-24T08:28:01;6.35;;;3.08;;
55497;SDS011;41357;52.806;18.268;2023-06-24T08:30:27;6.40;;;3.05;;
55497;SDS011;41357;52.806;18.268;2023-06-24T08:32:55;4.40;;;3.00;;
55497;SDS011;41357;52.806;18.268;2023-06-24T08:35:22;7.00;;;3.15;;
55497;SDS011;41357;52.806;18.268;2023-06-24T08:37:48;6.65;;;3.40;;
55497;SDS011;41357;52.806;18.268;2023-06-24T08:40:15;6.30;;;2.83;;
55497;SDS011;41357;52.806;18.268;2023-06-24T08:42:43;5.50;;;2.58;;
55497;SDS011;41357;52.806;18.268;2023-06-24T08:45:10;7.40;;;2.80;;
55497;SDS011;41357;52.806;18.268;2023-06-24T08:47:36;4.15;;;2.70;;
55497;SDS011;41357;52.806;18.268;2023-06-24T08:50:07;5.20;;;2.80;;
55497;SDS011;41357;52.806;18.268;2023-06-24T08:52:35;3.97;;;2.85;;
55497;SDS011;41357;52.806;18.268;2023-06-24T08:55:02;3.97;;;3.08;;
55497;SDS011;41357;52.806;18.268;2023-06-24T08:57:28;6.35;;;3.30;;
55497;SDS011;41357;52.806;18.268;2023-06-24T08:59:55;6.43;;;2.80;;
55497;SDS011;41357;52.806;18.268;2023-06-24T09:02:21;5.35;;;2.75;;
55497;SDS011;41357;52.806;18.268;2023-06-24T09:04:47;6.47;;;2.50;;
55497;SDS011;41357;52.806;18.268;2023-06-24T09:07:13;4.63;;;2.97;;
55497;SDS011;41357;52.806;18.268;2023-06-24T09:09:43;6.07;;;3.10;;
55497;SDS011;41357;52.806;18.268;2023-06-24T09:12:11;4.10;;;2.50;;
55497;SDS011;41357;52.806;18.268;2023-06-24T09:14:38;5.38;;;2.70;;
55497;SDS011;41357;52.806;18.268;2023-06-24T09:17:05;7.82;;;3.50;;
55497;SDS011;41357;52.806;18.268;2023-06-24T09:19:34;5.72;;;2.85;;
55497;SDS011;41357;52.806;18.268;2023-06-24T09:22:06;5.28;;;3.10;;
55497;SDS011;41357;52.806;18.268;2023-06-24T09:24:36;3.70;;;2.85;;
55497;SDS011;41357;52.806;18.268;2023-06-24T09:27:03;3.28;;;2.97;;
55497;SDS011;41357;52.806;18.268;2023-06-24T09:29:33;4.13;;;2.47;;
55497;SDS011;41357;52.806;18.268;2023-06-24T09:31:59;3.63;;;2.30;;
55497;SDS011;41357;52.806;18.268;2023-06-24T09:34:26;3.65;;;2.60;;
55497;SDS011;41357;52.806;18.268;2023-06-24T09:36:53;3.80;;;2.50;;
55497;SDS011;41357;52.806;18.268;2023-06-24T09:39:20;4.45;;;2.75;;
55497;SDS011;41357;52.806;18.268;2023-06-24T09:41:50;7.57;;;2.95;;
55497;SDS011;41357;52.806;18.268;2023-06-24T09:44:16;3.95;;;2.45;;
55497;SDS011;41357;52.806;18.268;2023-06-24T09:46:46;7.80;;;2.60;;
55497;SDS011;41357;52.806;18.268;2023-06-24T09:49:13;5.95;;;2.30;;
55497;SDS011;41357;52.806;18.268;2023-06-24T09:51:46;6.43;;;3.03;;
55497;SDS011;41357;52.806;18.268;2023-06-24T09:54:13;5.70;;;2.88;;
55497;SDS011;41357;52.806;18.268;2023-06-24T09:56:42;3.70;;;2.50;;
55497;SDS011;41357;52.806;18.268;2023-06-24T09:59:12;5.07;;;2.55;;
55497;SDS011;41357;52.806;18.268;2023-06-24T10:01:39;7.03;;;2.75;;
55497;SDS011;41357;52.806;18.268;2023-06-24T10:04:06;3.97;;;2.70;;
55497;SDS011;41357;52.806;18.268;2023-06-24T10:06:33;4.18;;;2.60;;
55497;SDS011;41357;52.806;18.268;2023-06-24T10:09:00;3.78;;;2.42;;
55497;SDS011;41357;52.806;18.268;2023-06-24T10:11:26;3.53;;;2.72;;
55497;SDS011;41357;52.806;18.268;2023-06-24T10:13:53;4.28;;;3.05;;
55497;SDS011;41357;52.806;18.268;2023-06-24T10:16:22;4.13;;;2.80;;
55497;SDS011;41357;52.806;18.268;2023-06-24T10:18:48;4.60;;;2.53;;
55497;SDS011;41357;52.806;18.268;2023-06-24T10:21:15;5.10;;;2.90;;
55497;SDS011;41357;52.806;18.268;2023-06-24T10:39:46;8.45;;;2.60;;
55497;SDS011;41357;52.806;18.268;2023-06-24T10:45:13;4.10;;;2.40;;
55497;SDS011;41357;52.806;18.268;2023-06-24T10:50:06;5.70;;;2.40;;
55497;SDS011;41357;52.806;18.268;2023-06-24T10:52:35;8.02;;;3.05;;
55497;SDS011;41357;52.806;18.268;2023-06-24T10:55:03;10.20;;;3.03;;
55497;SDS011;41357;52.806;18.268;2023-06-24T10:57:29;4.43;;;2.90;;
55497;SDS011;41357;52.806;18.268;2023-06-24T10:59:56;8.35;;;2.78;;
55497;SDS011;41357;52.806;18.268;2023-06-24T11:02:23;6.53;;;2.83;;
55497;SDS011;41357;52.806;18.268;2023-06-24T11:04:54;5.82;;;3.00;;
55497;SDS011;41357;52.806;18.268;2023-06-24T11:07:24;7.75;;;2.97;;
55497;SDS011;41357;52.806;18.268;2023-06-24T11:09:51;7.60;;;3.00;;
55497;SDS011;41357;52.806;18.268;2023-06-24T11:12:18;5.85;;;3.53;;
55497;SDS011;41357;52.806;18.268;2023-06-24T11:14:45;6.57;;;3.10;;
55497;SDS011;41357;52.806;18.268;2023-06-24T11:17:11;5.45;;;2.90;;
55497;SDS011;41357;52.806;18.268;2023-06-24T11:19:38;5.95;;;3.40;;
55497;SDS011;41357;52.806;18.268;2023-06-24T11:22:05;7.32;;;3.05;;
55497;SDS011;41357;52.806;18.268;2023-06-24T11:24:31;4.70;;;2.85;;
55497;SDS011;41357;52.806;18.268;2023-06-24T11:26:58;5.53;;;2.97;;
55497;SDS011;41357;52.806;18.268;2023-06-24T11:29:24;4.68;;;3.20;;
55497;SDS011;41357;52.806;18.268;2023-06-24T11:31:50;7.90;;;3.45;;
55497;SDS011;41357;52.806;18.268;2023-06-24T11:34:17;5.28;;;3.00;;
55497;SDS011;41357;52.806;18.268;2023-06-24T11:36:43;5.03;;;2.75;;
55497;SDS011;41357;52.806;18.268;2023-06-24T11:39:19;6.38;;;3.00;;
55497;SDS011;41357;52.806;18.268;2023-06-24T11:41:45;6.03;;;2.90;;
55497;SDS011;41357;52.806;18.268;2023-06-24T11:44:12;4.55;;;2.70;;
55497;SDS011;41357;52.806;18.268;2023-06-24T11:46:38;4.65;;;2.88;;
55497;SDS011;41357;52.806;18.268;2023-06-24T11:49:07;4.93;;;2.60;;
55497;SDS011;41357;52.806;18.268;2023-06-24T11:51:34;6.20;;;2.80;;
55497;SDS011;41357;52.806;18.268;2023-06-24T11:54:04;7.15;;;3.10;;
55497;SDS011;41357;52.806;18.268;2023-06-24T11:56:37;4.97;;;3.08;;
55497;SDS011;41357;52.806;18.268;2023-06-24T11:59:04;4.75;;;3.25;;
55497;SDS011;41357;52.806;18.268;2023-06-24T12:01:32;4.25;;;2.97;;
55497;SDS011;41357;52.806;18.268;2023-06-24T12:04:01;4.57;;;2.78;;
55497;SDS011;41357;52.806;18.268;2023-06-24T12:06:27;6.30;;;3.00;;
55497;SDS011;41357;52.806;18.268;2023-06-24T12:08:53;6.47;;;2.90;;
55497;SDS011;41357;52.806;18.268;2023-06-24T12:11:19;6.93;;;2.88;;
55497;SDS011;41357;52.806;18.268;2023-06-24T12:13:46;5.63;;;2.88;;
55497;SDS011;41357;52.806;18.268;2023-06-24T12:16:12;6.00;;;3.50;;
55497;SDS011;41357;52.806;18.268;2023-06-24T12:18:38;5.85;;;3.08;;
55497;SDS011;41357;52.806;18.268;2023-06-24T12:21:05;8.90;;;3.92;;
55497;SDS011;41357;52.806;18.268;2023-06-24T12:23:31;4.82;;;3.15;;
55497;SDS011;41357;52.806;18.268;2023-06-24T12:25:58;5.45;;;2.92;;
55497;SDS011;41357;52.806;18.268;2023-06-24T12:28:25;5.63;;;3.25;;
55497;SDS011;41357;52.806;18.268;2023-06-24T12:30:52;6.00;;;3.00;;
55497;SDS011;41357;52.806;18.268;2023-06-24T12:33:18;4.97;;;3.00;;
55497;SDS011;41357;52.806;18.268;2023-06-24T12:35:46;7.53;;;3.10;;
55497;SDS011;41357;52.806;18.268;2023-06-24T12:38:12;7.68;;;3.20;;
55497;SDS011;41357;52.806;18.268;2023-06-24T12:40:38;4.15;;;2.95;;
55497;SDS011;41357;52.806;18.268;2023-06-24T12:43:04;6.90;;;2.88;;
55497;SDS011;41357;52.806;18.268;2023-06-24T12:45:30;3.50;;;2.80;;
55497;SDS011;41357;52.806;18.268;2023-06-24T12:47:57;4.70;;;2.85;;
55497;SDS011;41357;52.806;18.268;2023-06-24T12:50:24;5.15;;;3.20;;
55497;SDS011;41357;52.806;18.268;2023-06-24T12:52:50;5.70;;;2.88;;
55497;SDS011;41357;52.806;18.268;2023-06-24T12:55:16;7.90;;;4.43;;
55497;SDS011;41357;52.806;18.268;2023-06-24T12:57:42;3.55;;;2.38;;
55497;SDS011;41357;52.806;18.268;2023-06-24T13:00:09;7.15;;;3.17;;
55497;SDS011;41357;52.806;18.268;2023-06-24T13:05:04;3.63;;;2.90;;
55497;SDS011;41357;52.806;18.268;2023-06-24T13:07:30;8.80;;;3.10;;
55497;SDS011;41357;52.806;18.268;2023-06-24T13:09:56;3.70;;;2.85;;
55497;SDS011;41357;52.806;18.268;2023-06-24T13:12:24;4.80;;;3.00;;
55497;SDS011;41357;52.806;18.268;2023-06-24T13:14:50;6.63;;;3.28;;
55497;SDS011;41357;52.806;18.268;2023-06-24T13:17:16;5.07;;;3.20;;
55497;SDS011;41357;52.806;18.268;2023-06-24T13:19:42;4.00;;;2.90;;
55497;SDS011;41357;52.806;18.268;2023-06-24T13:22:09;3.90;;;2.92;;
55497;SDS011;41357;52.806;18.268;2023-06-24T13:24:35;6.95;;;3.45;;
55497;SDS011;41357;52.806;18.268;2023-06-24T13:27:01;6.40;;;2.80;;
55497;SDS011;41357;52.806;18.268;2023-06-24T13:29:27;4.38;;;2.75;;
55497;SDS011;41357;52.806;18.268;2023-06-24T13:31:53;5.20;;;2.97;;
55497;SDS011;41357;52.806;18.268;2023-06-24T13:34:19;5.57;;;2.97;;
55497;SDS011;41357;52.806;18.268;2023-06-24T13:36:46;4.55;;;3.25;;
55497;SDS011;41357;52.806;18.268;2023-06-24T13:39:12;6.03;;;3.20;;
55497;SDS011;41357;52.806;18.268;2023-06-24T13:41:41;4.45;;;2.75;;
55497;SDS011;41357;52.806;18.268;2023-06-24T13:44:07;6.03;;;3.20;;
55497;SDS011;41357;52.806;18.268;2023-06-24T13:46:33;4.60;;;3.22;;
55497;SDS011;41357;52.806;18.268;2023-06-24T13:48:59;7.95;;;3.45;;
55497;SDS011;41357;52.806;18.268;2023-06-24T13:51:26;6.28;;;2.92;;
55497;SDS011;41357;52.806;18.268;2023-06-24T13:53:52;5.00;;;2.88;;
55497;SDS011;41357;52.806;18.268;2023-06-24T13:56:19;2.88;;;2.53;;
55497;SDS011;41357;52.806;18.268;2023-06-24T13:58:46;6.43;;;2.92;;
55497;SDS011;41357;52.806;18.268;2023-06-24T14:01:13;4.45;;;2.83;;
55497;SDS011;41357;52.806;18.268;2023-06-24T14:03:39;5.00;;;2.88;;
55497;SDS011;41357;52.806;18.268;2023-06-24T14:06:06;7.75;;;3.92;;
55497;SDS011;41357;52.806;18.268;2023-06-24T14:08:33;7.13;;;2.90;;
55497;SDS011;41357;52.806;18.268;2023-06-24T14:10:59;6.00;;;2.67;;
55497;SDS011;41357;52.806;18.268;2023-06-24T14:13:26;7.43;;;3.40;;
55497;SDS011;41357;52.806;18.268;2023-06-24T14:15:53;7.57;;;3.38;;
55497;SDS011;41357;52.806;18.268;2023-06-24T14:18:19;11.23;;;3.33;;
55497;SDS011;41357;52.806;18.268;2023-06-24T14:20:45;4.30;;;2.92;;
55497;SDS011;41357;52.806;18.268;2023-06-24T14:23:11;7.10;;;3.03;;
55497;SDS011;41357;52.806;18.268;2023-06-24T14:25:38;4.15;;;3.38;;
55497;SDS011;41357;52.806;18.268;2023-06-24T14:28:04;4.60;;;3.17;;
55497;SDS011;41357;52.806;18.268;2023-06-24T14:30:31;5.45;;;3.10;;
55497;SDS011;41357;52.806;18.268;2023-06-24T14:32:57;8.48;;;2.97;;
55497;SDS011;41357;52.806;18.268;2023-06-24T14:35:23;6.32;;;3.17;;
55497;SDS011;41357;52.806;18.268;2023-06-24T14:37:49;4.43;;;3.30;;
55497;SDS011;41357;52.806;18.268;2023-06-24T14:40:16;5.32;;;3.10;;
55497;SDS011;41357;52.806;18.268;2023-06-24T14:42:42;5.15;;;2.97;;
55497;SDS011;41357;52.806;18.268;2023-06-24T14:45:08;4.10;;;2.97;;
55497;SDS011;41357;52.806;18.268;2023-06-24T14:47:34;6.00;;;3.05;;
55497;SDS011;41357;52.806;18.268;2023-06-24T14:50:01;4.05;;;2.95;;
55497;SDS011;41357;52.806;18.268;2023-06-24T14:52:27;4.60;;;3.10;;
55497;SDS011;41357;52.806;18.268;2023-06-24T14:54:54;5.93;;;2.97;;
55497;SDS011;41357;52.806;18.268;2023-06-24T14:57:20;4.15;;;3.20;;
55497;SDS011;41357;52.806;18.268;2023-06-24T14:59:48;3.78;;;3.05;;
55497;SDS011;41357;52.806;18.268;2023-06-24T15:02:14;4.93;;;3.55;;
55497;SDS011;41357;52.806;18.268;2023-06-24T15:04:42;5.18;;;3.55;;
55497;SDS011;41357;52.806;18.268;2023-06-24T15:07:08;5.85;;;3.40;;